sensor_id;sensor_type;location;lat;lon;timestamp;P1;durP1;ratioP1;P2;durP2;ratioP2
74593;SDS011;63097;51.872;4.460;2023-02-15T00:01:07;75.50;;;34.10;;
74593;SDS011;63097;51.872;4.460;2023-02-15T00:03:34;69.28;;;34.85;;
74593;SDS011;63097;51.872;4.460;2023-02-15T00:06:00;68.60;;;34.20;;
74593;SDS011;63097;51.872;4.460;2023-02-15T00:08:25;76.03;;;33.08;;
74593;SDS011;63097;51.872;4.460;2023-02-15T00:10:50;69.78;;;33.00;;
74593;SDS011;63097;51.872;4.460;2023-02-15T00:13:16;69.07;;;34.78;;
74593;SDS011;63097;51.872;4.460;2023-02-15T00:15:41;69.40;;;33.97;;
74593;SDS011;63097;51.872;4.460;2023-02-15T00:18:06;76.78;;;35.60;;
74593;SDS011;63097;51.872;4.460;2023-02-15T00:20:31;71.45;;;32.72;;
74593;SDS011;63097;51.872;4.460;2023-02-15T00:22:58;72.28;;;32.88;;
74593;SDS011;63097;51.872;4.460;2023-02-15T00:25:23;64.93;;;33.65;;
74593;SDS011;63097;51.872;4.460;2023-02-15T00:27:49;70.90;;;34.65;;
74593;SDS011;63097;51.872;4.460;2023-02-15T00:30:14;68.78;;;32.17;;
74593;SDS011;63097;51.872;4.460;2023-02-15T00:32:39;73.68;;;33.33;;
74593;SDS011;63097;51.872;4.460;2023-02-15T00:35:05;73.32;;;33.83;;
74593;SDS011;63097;51.872;4.460;2023-02-15T00:37:30;69.60;;;32.70;;
74593;SDS011;63097;51.872;4.460;2023-02-15T00:39:55;79.00;;;34.85;;
74593;SDS011;63097;51.872;4.460;2023-02-15T00:42:21;69.95;;;32.58;;
74593;SDS011;63097;51.872;4.460;2023-02-15T00:44:46;64.97;;;31.25;;
74593;SDS011;63097;51.872;4.460;2023-02-15T00:47:11;66.25;;;32.58;;
74593;SDS011;63097;51.872;4.460;2023-02-15T00:49:37;74.55;;;32.33;;
74593;SDS011;63097;51.872;4.460;2023-02-15T00:52:02;62.95;;;32.25;;
74593;SDS011;63097;51.872;4.460;2023-02-15T00:54:27;67.50;;;31.88;;
74593;SDS011;63097;51.872;4.460;2023-02-15T00:56:52;66.75;;;32.63;;
74593;SDS011;63097;51.872;4.460;2023-02-15T00:59:18;68.68;;;31.70;;
74593;SDS011;63097;51.872;4.460;2023-02-15T01:01:43;66.07;;;33.15;;
74593;SDS011;63097;51.872;4.460;2023-02-15T01:04:08;69.05;;;33.45;;
74593;SDS011;63097;51.872;4.460;2023-02-15T01:06:34;67.75;;;32.60;;
74593;SDS011;63097;51.872;4.460;2023-02-15T01:08:59;70.50;;;31.33;;
74593;SDS011;63097;51.872;4.460;2023-02-15T01:11:24;70.05;;;31.42;;
74593;SDS011;63097;51.872;4.460;2023-02-15T01:13:54;70.43;;;33.55;;
74593;SDS011;63097;51.872;4.460;2023-02-15T01:16:21;67.30;;;33.45;;
74593;SDS011;63097;51.872;4.460;2023-02-15T01:18:49;76.85;;;33.13;;
74593;SDS011;63097;51.872;4.460;2023-02-15T01:21:19;64.05;;;30.67;;
74593;SDS011;63097;51.872;4.460;2023-02-15T01:23:46;62.55;;;29.67;;
74593;SDS011;63097;51.872;4.460;2023-02-15T01:26:12;72.15;;;31.92;;
74593;SDS011;63097;51.872;4.460;2023-02-15T01:28:38;64.68;;;31.75;;
74593;SDS011;63097;51.872;4.460;2023-02-15T01:31:07;67.85;;;31.80;;
74593;SDS011;63097;51.872;4.460;2023-02-15T01:33:35;66.82;;;31.10;;
74593;SDS011;63097;51.872;4.460;2023-02-15T01:36:00;59.63;;;31.00;;
74593;SDS011;63097;51.872;4.460;2023-02-15T01:38:26;67.80;;;31.05;;
74593;SDS011;63097;51.872;4.460;2023-02-15T01:40:52;62.75;;;30.35;;
74593;SDS011;63097;51.872;4.460;2023-02-15T01:43:18;59.83;;;29.42;;
74593;SDS011;63097;51.872;4.460;2023-02-15T01:45:44;66.65;;;30.55;;
74593;SDS011;63097;51.872;4.460;2023-02-15T01:48:22;63.40;;;29.73;;
74593;SDS011;63097;51.872;4.460;2023-02-15T01:50:53;63.80;;;29.67;;
74593;SDS011;63097;51.872;4.460;2023-02-15T01:55:57;63.38;;;30.08;;
74593;SDS011;63097;51.872;4.460;2023-02-15T01:58:23;66.80;;;30.10;;
74593;SDS011;63097;51.872;4.460;2023-02-15T02:00:50;78.22;;;32.10;;
74593;SDS011;63097;51.872;4.460;2023-02-15T02:03:16;65.00;;;30.27;;
74593;SDS011;63097;51.872;4.460;2023-02-15T02:05:49;69.65;;;31.48;;
74593;SDS011;63097;51.872;4.460;2023-02-15T02:08:14;62.75;;;29.85;;
74593;SDS011;63097;51.872;4.460;2023-02-15T02:10:39;65.60;;;30.58;;
74593;SDS011;63097;51.872;4.460;2023-02-15T02:13:05;66.53;;;29.98;;
74593;SDS011;63097;51.872;4.460;2023-02-15T02:21:14;66.40;;;29.80;;
74593;SDS011;63097;51.872;4.460;2023-02-15T02:24:02;66.38;;;30.13;;
74593;SDS011;63097;51.872;4.460;2023-02-15T02:29:26;69.97;;;31.00;;
74593;SDS011;63097;51.872;4.460;2023-02-15T02:43:29;67.80;;;30.38;;
74593;SDS011;63097;51.872;4.460;2023-02-15T02:46:15;63.70;;;29.90;;
74593;SDS011;63097;51.872;4.460;2023-02-15T02:48:44;58.03;;;29.35;;
74593;SDS011;63097;51.872;4.460;2023-02-15T02:51:11;60.92;;;28.58;;
74593;SDS011;63097;51.872;4.460;2023-02-15T02:53:36;69.25;;;31.08;;
74593;SDS011;63097;51.872;4.460;2023-02-15T02:56:04;73.32;;;30.42;;
74593;SDS011;63097;51.872;4.460;2023-02-15T02:58:38;62.97;;;30.50;;
74593;SDS011;63097;51.872;4.460;2023-02-15T03:03:42;63.28;;;29.80;;
74593;SDS011;63097;51.872;4.460;2023-02-15T03:06:12;63.70;;;29.17;;
74593;SDS011;63097;51.872;4.460;2023-02-15T03:08:47;69.07;;;29.92;;
74593;SDS011;63097;51.872;4.460;2023-02-15T03:11:15;66.47;;;31.13;;
74593;SDS011;63097;51.872;4.460;2023-02-15T03:13:41;68.60;;;30.65;;
74593;SDS011;63097;51.872;4.460;2023-02-15T03:16:08;69.93;;;31.92;;
74593;SDS011;63097;51.872;4.460;2023-02-15T03:18:39;64.90;;;29.02;;
74593;SDS011;63097;51.872;4.460;2023-02-15T03:21:09;70.47;;;32.83;;
74593;SDS011;63097;51.872;4.460;2023-02-15T03:23:37;65.85;;;29.33;;
74593;SDS011;63097;51.872;4.460;2023-02-15T03:26:05;66.28;;;32.13;;
74593;SDS011;63097;51.872;4.460;2023-02-15T03:28:36;66.80;;;30.50;;
74593;SDS011;63097;51.872;4.460;2023-02-15T03:33:34;62.70;;;28.63;;
74593;SDS011;63097;51.872;4.460;2023-02-15T03:36:11;64.93;;;30.73;;
74593;SDS011;63097;51.872;4.460;2023-02-15T03:38:50;68.85;;;32.00;;
74593;SDS011;63097;51.872;4.460;2023-02-15T03:41:22;65.18;;;30.85;;
74593;SDS011;63097;51.872;4.460;2023-02-15T03:43:52;72.60;;;31.52;;
74593;SDS011;63097;51.872;4.460;2023-02-15T03:46:23;75.15;;;30.63;;
74593;SDS011;63097;51.872;4.460;2023-02-15T03:48:51;67.63;;;30.10;;
74593;SDS011;63097;51.872;4.460;2023-02-15T03:51:19;69.30;;;29.98;;
74593;SDS011;63097;51.872;4.460;2023-02-15T03:53:48;64.78;;;30.15;;
74593;SDS011;63097;51.872;4.460;2023-02-15T03:56:15;70.90;;;31.70;;
74593;SDS011;63097;51.872;4.460;2023-02-15T03:58:40;63.45;;;29.50;;
74593;SDS011;63097;51.872;4.460;2023-02-15T04:01:40;62.85;;;30.83;;
74593;SDS011;63097;51.872;4.460;2023-02-15T04:04:07;65.35;;;29.83;;
74593;SDS011;63097;51.872;4.460;2023-02-15T04:06:40;67.43;;;30.35;;
74593;SDS011;63097;51.872;4.460;2023-02-15T04:09:05;59.33;;;30.13;;
74593;SDS011;63097;51.872;4.460;2023-02-15T04:11:31;61.72;;;31.38;;
74593;SDS011;63097;51.872;4.460;2023-02-15T04:13:56;69.10;;;31.02;;
74593;SDS011;63097;51.872;4.460;2023-02-15T04:16:24;68.57;;;30.83;;
74593;SDS011;63097;51.872;4.460;2023-02-15T04:18:50;65.05;;;30.80;;
74593;SDS011;63097;51.872;4.460;2023-02-15T04:21:16;63.58;;;30.10;;
74593;SDS011;63097;51.872;4.460;2023-02-15T04:23:41;68.72;;;30.23;;
74593;SDS011;63097;51.872;4.460;2023-02-15T04:26:07;67.65;;;29.55;;
74593;SDS011;63097;51.872;4.460;2023-02-15T04:28:32;61.08;;;29.77;;
74593;SDS011;63097;51.872;4.460;2023-02-15T04:30:57;64.63;;;29.83;;
74593;SDS011;63097;51.872;4.460;2023-02-15T04:33:23;71.95;;;31.95;;
74593;SDS011;63097;51.872;4.460;2023-02-15T04:35:48;69.35;;;29.80;;
74593;SDS011;63097;51.872;4.460;2023-02-15T04:38:13;60.17;;;29.15;;
74593;SDS011;63097;51.872;4.460;2023-02-15T04:40:39;67.47;;;30.42;;
74593;SDS011;63097;51.872;4.460;2023-02-15T04:43:04;64.90;;;29.38;;
74593;SDS011;63097;51.872;4.460;2023-02-15T04:45:29;62.20;;;29.02;;
74593;SDS011;63097;51.872;4.460;2023-02-15T04:47:55;69.95;;;29.77;;
74593;SDS011;63097;51.872;4.460;2023-02-15T04:50:20;60.00;;;29.88;;
74593;SDS011;63097;51.872;4.460;2023-02-15T04:52:46;62.40;;;28.88;;
74593;SDS011;63097;51.872;4.460;2023-02-15T04:55:11;63.70;;;27.60;;
74593;SDS011;63097;51.872;4.460;2023-02-15T04:57:36;66.05;;;29.50;;
74593;SDS011;63097;51.872;4.460;2023-02-15T05:00:02;68.20;;;28.38;;
74593;SDS011;63097;51.872;4.460;2023-02-15T05:02:28;59.83;;;27.75;;
74593;SDS011;63097;51.872;4.460;2023-02-15T05:04:53;61.30;;;29.63;;
74593;SDS011;63097;51.872;4.460;2023-02-15T05:07:18;57.88;;;28.25;;
74593;SDS011;63097;51.872;4.460;2023-02-15T05:09:44;63.58;;;28.15;;
74593;SDS011;63097;51.872;4.460;2023-02-15T05:12:09;65.60;;;30.17;;
74593;SDS011;63097;51.872;4.460;2023-02-15T05:14:34;66.72;;;29.17;;
74593;SDS011;63097;51.872;4.460;2023-02-15T05:16:59;57.53;;;27.25;;
74593;SDS011;63097;51.872;4.460;2023-02-15T05:19:25;59.60;;;26.77;;
74593;SDS011;63097;51.872;4.460;2023-02-15T05:21:50;61.20;;;28.85;;
74593;SDS011;63097;51.872;4.460;2023-02-15T05:24:15;62.92;;;27.92;;
74593;SDS011;63097;51.872;4.460;2023-02-15T05:26:41;63.13;;;27.67;;
74593;SDS011;63097;51.872;4.460;2023-02-15T05:32:10;66.55;;;29.38;;
74593;SDS011;63097;51.872;4.460;2023-02-15T05:34:38;67.38;;;30.08;;
74593;SDS011;63097;51.872;4.460;2023-02-15T05:37:03;63.50;;;28.17;;
74593;SDS011;63097;51.872;4.460;2023-02-15T05:39:28;75.75;;;28.40;;
74593;SDS011;63097;51.872;4.460;2023-02-15T05:41:54;61.25;;;27.30;;
74593;SDS011;63097;51.872;4.460;2023-02-15T05:44:19;64.93;;;28.33;;
74593;SDS011;63097;51.872;4.460;2023-02-15T05:46:44;65.53;;;28.10;;
74593;SDS011;63097;51.872;4.460;2023-02-15T05:49:10;59.67;;;27.13;;
74593;SDS011;63097;51.872;4.460;2023-02-15T05:51:35;64.32;;;28.98;;
74593;SDS011;63097;51.872;4.460;2023-02-15T05:54:00;69.05;;;30.33;;
74593;SDS011;63097;51.872;4.460;2023-02-15T05:56:25;71.18;;;28.65;;
74593;SDS011;63097;51.872;4.460;2023-02-15T05:58:52;59.03;;;28.17;;
74593;SDS011;63097;51.872;4.460;2023-02-15T06:01:18;59.00;;;26.42;;
74593;SDS011;63097;51.872;4.460;2023-02-15T06:03:44;63.67;;;28.25;;
74593;SDS011;63097;51.872;4.460;2023-02-15T06:06:10;59.05;;;27.10;;
74593;SDS011;63097;51.872;4.460;2023-02-15T06:08:36;58.35;;;26.92;;
74593;SDS011;63097;51.872;4.460;2023-02-15T06:11:02;59.83;;;27.40;;
74593;SDS011;63097;51.872;4.460;2023-02-15T06:13:28;65.97;;;25.95;;
74593;SDS011;63097;51.872;4.460;2023-02-15T06:15:54;63.80;;;28.38;;
74593;SDS011;63097;51.872;4.460;2023-02-15T06:18:19;63.60;;;26.95;;
74593;SDS011;63097;51.872;4.460;2023-02-15T06:23:47;63.08;;;25.83;;
74593;SDS011;63097;51.872;4.460;2023-02-15T06:26:13;54.63;;;26.05;;
74593;SDS011;63097;51.872;4.460;2023-02-15T06:28:38;63.15;;;26.48;;
74593;SDS011;63097;51.872;4.460;2023-02-15T06:31:03;57.28;;;27.70;;
74593;SDS011;63097;51.872;4.460;2023-02-15T06:33:29;59.72;;;27.35;;
74593;SDS011;63097;51.872;4.460;2023-02-15T06:35:54;58.83;;;26.90;;
74593;SDS011;63097;51.872;4.460;2023-02-15T06:38:19;58.95;;;26.65;;
74593;SDS011;63097;51.872;4.460;2023-02-15T06:40:45;66.70;;;27.02;;
74593;SDS011;63097;51.872;4.460;2023-02-15T06:43:10;69.68;;;28.42;;
74593;SDS011;63097;51.872;4.460;2023-02-15T06:45:35;61.80;;;27.73;;
74593;SDS011;63097;51.872;4.460;2023-02-15T06:48:01;64.60;;;29.08;;
74593;SDS011;63097;51.872;4.460;2023-02-15T06:50:26;64.03;;;27.40;;
74593;SDS011;63097;51.872;4.460;2023-02-15T06:52:58;61.47;;;25.80;;
74593;SDS011;63097;51.872;4.460;2023-02-15T06:55:23;55.40;;;26.08;;
74593;SDS011;63097;51.872;4.460;2023-02-15T06:57:49;63.65;;;25.52;;
74593;SDS011;63097;51.872;4.460;2023-02-15T07:00:15;53.08;;;25.55;;
74593;SDS011;63097;51.872;4.460;2023-02-15T07:02:40;61.45;;;25.80;;
74593;SDS011;63097;51.872;4.460;2023-02-15T07:05:05;55.22;;;27.35;;
74593;SDS011;63097;51.872;4.460;2023-02-15T07:07:31;57.72;;;26.40;;
74593;SDS011;63097;51.872;4.460;2023-02-15T07:09:56;63.13;;;27.38;;
74593;SDS011;63097;51.872;4.460;2023-02-15T07:12:22;58.72;;;26.27;;
74593;SDS011;63097;51.872;4.460;2023-02-15T07:14:47;56.63;;;26.20;;
74593;SDS011;63097;51.872;4.460;2023-02-15T07:17:12;57.53;;;25.70;;
74593;SDS011;63097;51.872;4.460;2023-02-15T07:19:38;59.25;;;26.55;;
74593;SDS011;63097;51.872;4.460;2023-02-15T07:22:03;57.05;;;25.52;;
74593;SDS011;63097;51.872;4.460;2023-02-15T07:24:28;61.85;;;25.75;;
74593;SDS011;63097;51.872;4.460;2023-02-15T07:26:54;52.53;;;25.35;;
74593;SDS011;63097;51.872;4.460;2023-02-15T07:29:19;58.05;;;26.13;;
74593;SDS011;63097;51.872;4.460;2023-02-15T07:31:44;55.78;;;25.42;;
74593;SDS011;63097;51.872;4.460;2023-02-15T07:34:10;59.47;;;24.65;;
74593;SDS011;63097;51.872;4.460;2023-02-15T07:36:35;59.65;;;25.98;;
74593;SDS011;63097;51.872;4.460;2023-02-15T07:39:00;54.35;;;25.17;;
74593;SDS011;63097;51.872;4.460;2023-02-15T07:41:26;51.47;;;24.67;;
74593;SDS011;63097;51.872;4.460;2023-02-15T07:43:51;56.75;;;24.48;;
74593;SDS011;63097;51.872;4.460;2023-02-15T07:46:16;55.67;;;24.77;;
74593;SDS011;63097;51.872;4.460;2023-02-15T07:48:42;56.03;;;25.02;;
74593;SDS011;63097;51.872;4.460;2023-02-15T07:51:09;59.10;;;25.20;;
74593;SDS011;63097;51.872;4.460;2023-02-15T07:53:36;60.60;;;24.35;;
74593;SDS011;63097;51.872;4.460;2023-02-15T07:56:08;54.15;;;24.92;;
74593;SDS011;63097;51.872;4.460;2023-02-15T07:58:35;57.72;;;25.42;;
74593;SDS011;63097;51.872;4.460;2023-02-15T08:01:01;65.80;;;24.85;;
74593;SDS011;63097;51.872;4.460;2023-02-15T08:03:26;48.47;;;24.42;;
74593;SDS011;63097;51.872;4.460;2023-02-15T08:05:55;55.08;;;25.17;;
74593;SDS011;63097;51.872;4.460;2023-02-15T08:08:22;69.65;;;26.60;;
74593;SDS011;63097;51.872;4.460;2023-02-15T08:10:47;65.47;;;28.15;;
74593;SDS011;63097;51.872;4.460;2023-02-15T08:13:13;62.22;;;27.55;;
74593;SDS011;63097;51.872;4.460;2023-02-15T08:15:38;57.25;;;27.15;;
74593;SDS011;63097;51.872;4.460;2023-02-15T08:18:03;58.95;;;27.98;;
74593;SDS011;63097;51.872;4.460;2023-02-15T08:20:29;57.42;;;25.88;;
74593;SDS011;63097;51.872;4.460;2023-02-15T08:22:54;56.30;;;26.42;;
74593;SDS011;63097;51.872;4.460;2023-02-15T08:25:19;62.58;;;28.70;;
74593;SDS011;63097;51.872;4.460;2023-02-15T08:27:45;56.05;;;26.50;;
74593;SDS011;63097;51.872;4.460;2023-02-15T08:30:10;58.17;;;26.80;;
74593;SDS011;63097;51.872;4.460;2023-02-15T08:32:36;62.20;;;27.58;;
74593;SDS011;63097;51.872;4.460;2023-02-15T08:35:02;53.92;;;25.50;;
74593;SDS011;63097;51.872;4.460;2023-02-15T08:37:27;60.38;;;27.52;;
74593;SDS011;63097;51.872;4.460;2023-02-15T08:39:52;63.65;;;26.02;;
74593;SDS011;63097;51.872;4.460;2023-02-15T08:42:17;53.58;;;25.95;;
74593;SDS011;63097;51.872;4.460;2023-02-15T08:44:43;66.30;;;27.13;;
74593;SDS011;63097;51.872;4.460;2023-02-15T08:47:08;56.72;;;26.65;;
74593;SDS011;63097;51.872;4.460;2023-02-15T08:49:33;55.75;;;25.77;;
74593;SDS011;63097;51.872;4.460;2023-02-15T08:51:59;53.30;;;26.40;;
74593;SDS011;63097;51.872;4.460;2023-02-15T08:54:24;55.00;;;27.08;;
74593;SDS011;63097;51.872;4.460;2023-02-15T08:56:49;58.75;;;28.35;;
74593;SDS011;63097;51.872;4.460;2023-02-15T08:59:24;52.78;;;25.83;;
74593;SDS011;63097;51.872;4.460;2023-02-15T09:01:50;59.42;;;26.40;;
74593;SDS011;63097;51.872;4.460;2023-02-15T09:04:16;45.45;;;21.83;;
74593;SDS011;63097;51.872;4.460;2023-02-15T09:06:42;52.83;;;27.42;;
74593;SDS011;63097;51.872;4.460;2023-02-15T09:09:08;54.50;;;25.63;;
74593;SDS011;63097;51.872;4.460;2023-02-15T09:11:45;50.75;;;26.17;;
74593;SDS011;63097;51.872;4.460;2023-02-15T09:14:13;43.50;;;20.40;;
74593;SDS011;63097;51.872;4.460;2023-02-15T09:16:40;52.47;;;25.80;;
74593;SDS011;63097;51.872;4.460;2023-02-15T09:19:07;52.10;;;23.50;;
74593;SDS011;63097;51.872;4.460;2023-02-15T09:21:34;54.97;;;26.27;;
74593;SDS011;63097;51.872;4.460;2023-02-15T09:24:02;64.60;;;27.48;;
74593;SDS011;63097;51.872;4.460;2023-02-15T09:26:30;53.63;;;25.35;;
74593;SDS011;63097;51.872;4.460;2023-02-15T09:28:58;59.85;;;27.08;;
74593;SDS011;63097;51.872;4.460;2023-02-15T09:31:25;54.65;;;26.52;;
74593;SDS011;63097;51.872;4.460;2023-02-15T09:33:52;53.40;;;23.83;;
74593;SDS011;63097;51.872;4.460;2023-02-15T09:36:39;52.40;;;25.40;;
74593;SDS011;63097;51.872;4.460;2023-02-15T09:39:11;59.55;;;26.30;;
74593;SDS011;63097;51.872;4.460;2023-02-15T09:53:49;47.28;;;24.42;;
74593;SDS011;63097;51.872;4.460;2023-02-15T10:06:54;53.20;;;26.60;;
74593;SDS011;63097;51.872;4.460;2023-02-15T10:09:58;46.20;;;21.13;;
74593;SDS011;63097;51.872;4.460;2023-02-15T10:12:32;50.70;;;24.52;;
74593;SDS011;63097;51.872;4.460;2023-02-15T10:26:12;52.38;;;25.42;;
74593;SDS011;63097;51.872;4.460;2023-02-15T10:31:26;50.58;;;24.67;;
74593;SDS011;63097;51.872;4.460;2023-02-15T10:34:15;45.55;;;23.70;;
74593;SDS011;63097;51.872;4.460;2023-02-15T10:42:27;47.97;;;24.63;;
74593;SDS011;63097;51.872;4.460;2023-02-15T10:45:56;49.03;;;24.42;;
74593;SDS011;63097;51.872;4.460;2023-02-15T10:51:14;47.15;;;25.15;;
74593;SDS011;63097;51.872;4.460;2023-02-15T10:54:08;42.28;;;23.08;;
74593;SDS011;63097;51.872;4.460;2023-02-15T10:59:09;48.00;;;25.35;;
74593;SDS011;63097;51.872;4.460;2023-02-15T11:07:06;46.38;;;22.77;;
74593;SDS011;63097;51.872;4.460;2023-02-15T11:10:25;46.60;;;24.13;;
74593;SDS011;63097;51.872;4.460;2023-02-15T11:12:47;46.13;;;22.70;;
74593;SDS011;63097;51.872;4.460;2023-02-15T11:15:25;38.72;;;22.52;;
74593;SDS011;63097;51.872;4.460;2023-02-15T11:18:03;41.13;;;22.13;;
74593;SDS011;63097;51.872;4.460;2023-02-15T11:20:44;44.75;;;23.27;;
74593;SDS011;63097;51.872;4.460;2023-02-15T11:23:32;40.03;;;21.00;;
74593;SDS011;63097;51.872;4.460;2023-02-15T11:26:02;41.70;;;21.40;;
74593;SDS011;63097;51.872;4.460;2023-02-15T11:31:14;25.52;;;12.82;;
74593;SDS011;63097;51.872;4.460;2023-02-15T11:33:44;50.65;;;22.42;;
74593;SDS011;63097;51.872;4.460;2023-02-15T11:36:19;47.58;;;22.42;;
74593;SDS011;63097;51.872;4.460;2023-02-15T11:39:13;44.90;;;23.35;;
74593;SDS011;63097;51.872;4.460;2023-02-15T11:41:41;40.15;;;21.85;;
74593;SDS011;63097;51.872;4.460;2023-02-15T11:44:16;46.70;;;23.80;;
74593;SDS011;63097;51.872;4.460;2023-02-15T11:46:43;33.50;;;17.85;;
74593;SDS011;63097;51.872;4.460;2023-02-15T11:49:19;46.58;;;22.35;;
74593;SDS011;63097;51.872;4.460;2023-02-15T11:51:45;45.92;;;22.75;;
74593;SDS011;63097;51.872;4.460;2023-02-15T11:54:11;45.35;;;22.73;;
74593;SDS011;63097;51.872;4.460;2023-02-15T11:56:36;43.47;;;21.65;;
74593;SDS011;63097;51.872;4.460;2023-02-15T11:59:12;47.60;;;20.90;;
74593;SDS011;63097;51.872;4.460;2023-02-15T12:01:47;51.10;;;23.95;;
74593;SDS011;63097;51.872;4.460;2023-02-15T12:04:16;38.58;;;19.77;;
74593;SDS011;63097;51.872;4.460;2023-02-15T12:06:57;44.45;;;21.65;;
74593;SDS011;63097;51.872;4.460;2023-02-15T12:09:34;38.55;;;19.60;;
74593;SDS011;63097;51.872;4.460;2023-02-15T12:14:51;37.60;;;21.73;;
74593;SDS011;63097;51.872;4.460;2023-02-15T12:17:20;39.95;;;22.25;;
74593;SDS011;63097;51.872;4.460;2023-02-15T12:19:48;38.55;;;19.67;;
74593;SDS011;63097;51.872;4.460;2023-02-15T12:30:58;43.95;;;21.08;;
74593;SDS011;63097;51.872;4.460;2023-02-15T12:36:11;41.05;;;19.85;;
74593;SDS011;63097;51.872;4.460;2023-02-15T12:39:02;42.25;;;20.48;;
74593;SDS011;63097;51.872;4.460;2023-02-15T12:41:29;39.72;;;21.23;;
74593;SDS011;63097;51.872;4.460;2023-02-15T12:46:55;42.53;;;23.15;;
74593;SDS011;63097;51.872;4.460;2023-02-15T12:49:26;42.85;;;20.40;;
74593;SDS011;63097;51.872;4.460;2023-02-15T12:51:54;43.90;;;23.17;;
74593;SDS011;63097;51.872;4.460;2023-02-15T12:56:49;36.67;;;18.88;;
74593;SDS011;63097;51.872;4.460;2023-02-15T12:59:14;42.28;;;21.63;;
74593;SDS011;63097;51.872;4.460;2023-02-15T13:01:40;42.60;;;22.42;;
74593;SDS011;63097;51.872;4.460;2023-02-15T13:04:14;38.60;;;21.67;;
74593;SDS011;63097;51.872;4.460;2023-02-15T13:06:46;40.58;;;22.75;;
74593;SDS011;63097;51.872;4.460;2023-02-15T13:09:22;40.45;;;21.75;;
74593;SDS011;63097;51.872;4.460;2023-02-15T13:12:10;40.40;;;22.23;;
74593;SDS011;63097;51.872;4.460;2023-02-15T13:14:36;44.15;;;23.30;;
74593;SDS011;63097;51.872;4.460;2023-02-15T13:17:02;40.92;;;23.05;;
74593;SDS011;63097;51.872;4.460;2023-02-15T13:19:31;41.67;;;23.17;;
74593;SDS011;63097;51.872;4.460;2023-02-15T13:22:02;47.92;;;23.10;;
74593;SDS011;63097;51.872;4.460;2023-02-15T13:27:10;43.28;;;23.20;;
74593;SDS011;63097;51.872;4.460;2023-02-15T13:29:41;46.33;;;24.10;;
74593;SDS011;63097;51.872;4.460;2023-02-15T13:32:19;44.95;;;23.25;;
74593;SDS011;63097;51.872;4.460;2023-02-15T13:34:56;45.50;;;23.33;;
74593;SDS011;63097;51.872;4.460;2023-02-15T13:39:54;44.08;;;21.95;;
74593;SDS011;63097;51.872;4.460;2023-02-15T13:50:37;46.85;;;22.98;;
74593;SDS011;63097;51.872;4.460;2023-02-15T13:59:00;42.58;;;22.45;;
74593;SDS011;63097;51.872;4.460;2023-02-15T14:01:44;46.67;;;25.45;;
74593;SDS011;63097;51.872;4.460;2023-02-15T14:12:24;40.70;;;19.87;;
74593;SDS011;63097;51.872;4.460;2023-02-15T14:15:05;43.53;;;24.02;;
74593;SDS011;63097;51.872;4.460;2023-02-15T14:17:58;45.78;;;22.80;;
74593;SDS011;63097;51.872;4.460;2023-02-15T14:26:04;46.47;;;25.33;;
74593;SDS011;63097;51.872;4.460;2023-02-15T14:31:30;49.00;;;24.80;;
74593;SDS011;63097;51.872;4.460;2023-02-15T14:33:59;42.63;;;22.80;;
74593;SDS011;63097;51.872;4.460;2023-02-15T14:36:25;47.53;;;23.70;;
74593;SDS011;63097;51.872;4.460;2023-02-15T14:39:06;52.58;;;25.15;;
74593;SDS011;63097;51.872;4.460;2023-02-15T14:41:49;30.98;;;17.33;;
74593;SDS011;63097;51.872;4.460;2023-02-15T14:44:32;46.00;;;23.88;;
74593;SDS011;63097;51.872;4.460;2023-02-15T14:47:07;50.00;;;23.80;;
74593;SDS011;63097;51.872;4.460;2023-02-15T14:49:38;54.63;;;24.83;;
74593;SDS011;63097;51.872;4.460;2023-02-15T14:52:08;48.33;;;23.75;;
74593;SDS011;63097;51.872;4.460;2023-02-15T14:59:25;49.25;;;26.13;;
74593;SDS011;63097;51.872;4.460;2023-02-15T15:01:57;49.45;;;25.35;;
74593;SDS011;63097;51.872;4.460;2023-02-15T15:05:12;41.63;;;20.65;;
74593;SDS011;63097;51.872;4.460;2023-02-15T15:07:23;50.22;;;26.05;;
74593;SDS011;63097;51.872;4.460;2023-02-15T15:12:40;49.08;;;25.55;;
74593;SDS011;63097;51.872;4.460;2023-02-15T15:15:07;51.85;;;27.20;;
74593;SDS011;63097;51.872;4.460;2023-02-15T15:23:32;44.95;;;25.48;;
74593;SDS011;63097;51.872;4.460;2023-02-15T15:30:58;61.50;;;27.77;;
74593;SDS011;63097;51.872;4.460;2023-02-15T15:48:20;48.15;;;26.42;;
74593;SDS011;63097;51.872;4.460;2023-02-15T15:50:53;51.30;;;26.58;;
74593;SDS011;63097;51.872;4.460;2023-02-15T15:53:24;54.42;;;27.02;;
74593;SDS011;63097;51.872;4.460;2023-02-15T15:55:54;47.40;;;25.48;;
74593;SDS011;63097;51.872;4.460;2023-02-15T15:58:27;55.22;;;26.75;;
74593;SDS011;63097;51.872;4.460;2023-02-15T16:00:58;62.95;;;26.90;;
74593;SDS011;63097;51.872;4.460;2023-02-15T16:03:29;54.88;;;26.05;;
74593;SDS011;63097;51.872;4.460;2023-02-15T16:05:55;53.00;;;27.30;;
74593;SDS011;63097;51.872;4.460;2023-02-15T16:08:32;59.88;;;27.02;;
74593;SDS011;63097;51.872;4.460;2023-02-15T16:11:00;55.67;;;27.35;;
74593;SDS011;63097;51.872;4.460;2023-02-15T16:13:35;58.20;;;27.20;;
74593;SDS011;63097;51.872;4.460;2023-02-15T16:16:00;54.05;;;27.20;;
74593;SDS011;63097;51.872;4.460;2023-02-15T16:18:26;56.35;;;26.00;;
74593;SDS011;63097;51.872;4.460;2023-02-15T16:21:01;52.13;;;26.02;;
74593;SDS011;63097;51.872;4.460;2023-02-15T16:28:29;54.63;;;25.45;;
74593;SDS011;63097;51.872;4.460;2023-02-15T16:30:58;57.55;;;26.08;;
74593;SDS011;63097;51.872;4.460;2023-02-15T16:33:37;52.30;;;25.17;;
74593;SDS011;63097;51.872;4.460;2023-02-15T16:36:04;47.33;;;25.02;;
74593;SDS011;63097;51.872;4.460;2023-02-15T16:41:07;54.10;;;24.45;;
74593;SDS011;63097;51.872;4.460;2023-02-15T16:43:35;47.58;;;23.38;;
74593;SDS011;63097;51.872;4.460;2023-02-15T16:46:06;56.63;;;24.77;;
74593;SDS011;63097;51.872;4.460;2023-02-15T16:48:40;47.60;;;23.30;;
74593;SDS011;63097;51.872;4.460;2023-02-15T16:51:09;45.30;;;22.65;;
74593;SDS011;63097;51.872;4.460;2023-02-15T16:53:35;46.42;;;24.00;;
74593;SDS011;63097;51.872;4.460;2023-02-15T16:56:02;47.20;;;22.98;;
74593;SDS011;63097;51.872;4.460;2023-02-15T16:58:36;46.05;;;23.15;;
74593;SDS011;63097;51.872;4.460;2023-02-15T17:01:06;48.60;;;23.00;;
74593;SDS011;63097;51.872;4.460;2023-02-15T17:03:33;47.75;;;21.95;;
74593;SDS011;63097;51.872;4.460;2023-02-15T17:06:00;48.38;;;23.10;;
74593;SDS011;63097;51.872;4.460;2023-02-15T17:08:35;52.40;;;24.20;;
74593;SDS011;63097;51.872;4.460;2023-02-15T17:11:32;54.15;;;23.65;;
74593;SDS011;63097;51.872;4.460;2023-02-15T17:16:34;48.40;;;23.95;;
74593;SDS011;63097;51.872;4.460;2023-02-15T17:19:01;49.15;;;23.42;;
74593;SDS011;63097;51.872;4.460;2023-02-15T17:21:30;43.78;;;24.10;;
74593;SDS011;63097;51.872;4.460;2023-02-15T17:24:01;55.08;;;24.40;;
74593;SDS011;63097;51.872;4.460;2023-02-15T17:26:32;51.33;;;25.20;;
74593;SDS011;63097;51.872;4.460;2023-02-15T17:29:01;46.30;;;24.25;;
74593;SDS011;63097;51.872;4.460;2023-02-15T17:31:52;50.78;;;24.10;;
74593;SDS011;63097;51.872;4.460;2023-02-15T17:37:15;50.20;;;24.60;;
74593;SDS011;63097;51.872;4.460;2023-02-15T17:39:49;54.30;;;24.60;;
74593;SDS011;63097;51.872;4.460;2023-02-15T17:42:14;49.40;;;24.73;;
74593;SDS011;63097;51.872;4.460;2023-02-15T17:44:40;46.63;;;24.20;;